createdAt,value
2019-03-19T00:00:18.913Z,99.90
2019-03-19T00:02:46.736Z,99.90
2019-03-19T00:05:13.951Z,99.90
2019-03-19T00:07:41.164Z,99.90
2019-03-19T00:10:09.180Z,99.90
2019-03-19T00:12:36.546Z,99.90
2019-03-19T00:15:04.060Z,99.90
2019-03-19T00:17:32.261Z,99.90
2019-03-19T00:19:59.479Z,99.90
2019-03-19T00:22:26.705Z,99.90
2019-03-19T00:24:54.392Z,99.90
2019-03-19T00:27:22.293Z,99.90
2019-03-19T00:29:49.522Z,99.90
2019-03-19T00:32:17.396Z,99.90
2019-03-19T00:34:44.992Z,99.90
2019-03-19T00:37:12.205Z,99.90
2019-03-19T00:39:39.446Z,99.90
2019-03-19T00:42:06.929Z,99.90
2019-03-19T00:44:34.387Z,99.90
2019-03-19T00:47:02.153Z,99.90
2019-03-19T00:49:29.477Z,99.90
2019-03-19T00:51:57.375Z,99.90
2019-03-19T00:54:24.613Z,99.90
2019-03-19T00:56:52.356Z,99.90
2019-03-19T00:59:19.467Z,99.90
2019-03-19T01:01:46.887Z,99.90
2019-03-19T01:04:14.448Z,99.90
2019-03-19T01:06:42.008Z,99.90
2019-03-19T01:09:09.223Z,99.90
2019-03-19T01:11:36.924Z,99.90
2019-03-19T01:14:04.579Z,99.90
2019-03-19T01:16:31.824Z,99.90
2019-03-19T01:18:59.043Z,99.90
2019-03-19T01:21:26.285Z,99.90
2019-03-19T01:23:53.775Z,99.90
2019-03-19T01:26:21.036Z,99.90
2019-03-19T01:28:48.262Z,99.90
2019-03-19T01:31:15.891Z,99.90
2019-03-19T01:33:43.399Z,99.90
2019-03-19T01:36:10.648Z,99.90
2019-03-19T01:38:37.872Z,99.90
2019-03-19T01:41:05.375Z,99.90
2019-03-19T01:43:33.082Z,99.90
2019-03-19T01:46:00.404Z,99.90
2019-03-19T01:48:27.948Z,99.90
2019-03-19T01:50:55.203Z,99.90
2019-03-19T01:53:22.867Z,99.90
2019-03-19T01:55:50.133Z,99.90
2019-03-19T01:58:17.671Z,99.90
2019-03-19T02:00:44.920Z,99.90
2019-03-19T02:03:12.585Z,99.90
2019-03-19T02:05:39.824Z,99.90
2019-03-19T02:08:07.052Z,99.90
2019-03-19T02:10:34.267Z,99.90
2019-03-19T02:13:02.106Z,99.90
2019-03-19T02:15:29.316Z,99.90
2019-03-19T02:17:56.571Z,99.90
2019-03-19T02:20:23.783Z,99.90
2019-03-19T02:22:51.317Z,99.90
2019-03-19T02:25:18.772Z,99.90
2019-03-19T02:27:46.350Z,99.90
2019-03-19T02:30:13.934Z,99.90
2019-03-19T02:32:41.317Z,99.90
2019-03-19T02:35:08.799Z,99.90
2019-03-19T02:37:36.289Z,99.90
2019-03-19T02:40:03.837Z,99.90
2019-03-19T02:42:31.174Z,99.90
2019-03-19T02:44:58.732Z,99.90
2019-03-19T02:47:26.296Z,99.90
2019-03-19T02:49:53.522Z,99.90
2019-03-19T02:52:20.919Z,99.90
2019-03-19T02:54:48.926Z,99.90
2019-03-19T02:57:16.544Z,99.90
2019-03-19T02:59:44.207Z,99.90
2019-03-19T03:02:11.852Z,99.90
2019-03-19T03:04:39.068Z,99.90
2019-03-19T03:07:06.668Z,99.90
2019-03-19T03:09:33.909Z,99.90
2019-03-19T03:12:01.468Z,99.90
2019-03-19T03:14:28.944Z,99.90
2019-03-19T03:16:56.278Z,99.90
2019-03-19T03:19:23.593Z,99.90
2019-03-19T03:21:50.855Z,99.90
2019-03-19T03:24:18.159Z,99.90
2019-03-19T03:26:48.024Z,99.90
2019-03-19T03:29:15.415Z,99.90
2019-03-19T03:31:42.683Z,99.90
2019-03-19T03:34:10.130Z,99.90
2019-03-19T03:36:37.676Z,99.90
2019-03-19T03:39:06.726Z,99.90
2019-03-19T03:41:34.327Z,99.90
2019-03-19T03:44:01.543Z,99.90
2019-03-19T03:46:28.890Z,99.90
2019-03-19T03:48:56.132Z,99.90
2019-03-19T03:51:23.374Z,99.90
2019-03-19T03:53:51.202Z,99.90
2019-03-19T03:56:18.859Z,99.90
2019-03-19T03:58:59.822Z,99.90
2019-03-19T04:01:15.729Z,99.90
2019-03-19T04:03:43.281Z,99.90
2019-03-19T04:06:10.498Z,99.90
2019-03-19T04:08:38.509Z,99.90
2019-03-19T04:11:05.725Z,99.90
2019-03-19T04:13:32.967Z,99.90
2019-03-19T04:16:00.279Z,99.90
2019-03-19T04:18:27.916Z,99.90
2019-03-19T04:20:55.133Z,99.90
2019-03-19T04:23:22.628Z,99.90
2019-03-19T04:25:50.392Z,99.90
2019-03-19T04:28:17.646Z,99.90
2019-03-19T04:30:45.312Z,99.90
2019-03-19T04:33:12.624Z,99.90
2019-03-19T04:35:42.109Z,99.90
2019-03-19T04:38:09.043Z,99.90
2019-03-19T04:40:36.269Z,99.90
2019-03-19T04:43:03.608Z,99.90
2019-03-19T04:45:30.920Z,99.90
2019-03-19T04:47:58.285Z,99.90
2019-03-19T04:50:25.948Z,99.90
2019-03-19T04:52:53.231Z,99.90
2019-03-19T04:55:21.095Z,99.90
2019-03-19T04:57:48.655Z,99.90
2019-03-19T05:00:16.237Z,99.90
2019-03-19T05:02:43.820Z,99.90
2019-03-19T05:05:11.512Z,99.90
2019-03-19T05:07:38.745Z,99.90
2019-03-19T05:10:08.091Z,99.90
2019-03-19T05:12:35.632Z,99.90
2019-03-19T05:15:03.096Z,99.90
2019-03-19T05:17:30.333Z,99.90
2019-03-19T05:19:58.024Z,99.90
2019-03-19T05:22:25.487Z,99.90
2019-03-19T05:24:53.038Z,99.90
2019-03-19T05:27:20.257Z,99.90
2019-03-19T05:29:47.499Z,99.90
2019-03-19T05:32:14.728Z,99.90
2019-03-19T05:34:42.243Z,99.90
2019-03-19T05:37:09.797Z,99.90
2019-03-19T05:39:37.360Z,99.90
2019-03-19T05:42:04.903Z,99.90
2019-03-19T05:44:32.384Z,99.90
2019-03-19T05:46:59.948Z,99.90
2019-03-19T05:49:27.495Z,99.90
2019-03-19T05:51:54.715Z,99.90
2019-03-19T05:54:23.071Z,99.90
2019-03-19T05:56:50.631Z,99.90
2019-03-19T05:59:18.374Z,99.90
2019-03-19T06:01:45.905Z,99.90
2019-03-19T06:04:13.127Z,99.90
2019-03-19T06:06:40.715Z,99.90
2019-03-19T06:09:08.223Z,99.90
2019-03-19T06:11:35.448Z,99.90
2019-03-19T06:14:03.076Z,99.90
2019-03-19T06:16:30.291Z,99.90
2019-03-19T06:18:57.792Z,99.90
2019-03-19T06:21:25.003Z,99.90
2019-03-19T06:23:52.641Z,99.90
2019-03-19T06:26:20.263Z,99.90
2019-03-19T06:28:47.481Z,99.90
2019-03-19T06:31:15.093Z,99.90
2019-03-19T06:33:42.839Z,99.90
2019-03-19T06:36:10.287Z,99.90
2019-03-19T06:38:37.565Z,99.90
2019-03-19T06:41:04.800Z,99.90
2019-03-19T06:43:32.360Z,99.90
2019-03-19T06:45:59.612Z,99.90
2019-03-19T06:48:26.938Z,99.90
2019-03-19T06:50:54.175Z,99.90
2019-03-19T06:53:22.084Z,99.90
2019-03-19T06:55:49.336Z,99.90
2019-03-19T06:58:16.571Z,99.90
2019-03-19T07:00:45.298Z,99.90
2019-03-19T07:03:12.529Z,99.90
2019-03-19T07:05:40.102Z,99.90
2019-03-19T07:08:07.645Z,99.90
2019-03-19T07:10:35.226Z,99.90
2019-03-19T07:13:02.968Z,99.90
2019-03-19T07:15:30.231Z,99.90
2019-03-19T07:17:57.782Z,99.90
2019-03-19T07:20:25.436Z,99.90
2019-03-19T07:22:52.685Z,99.90
2019-03-19T07:25:20.449Z,99.90
2019-03-19T07:27:47.675Z,99.90
2019-03-19T07:30:16.028Z,99.90
2019-03-19T07:32:43.252Z,99.90
2019-03-19T07:35:10.789Z,99.90
2019-03-19T07:37:38.339Z,99.90
2019-03-19T07:40:06.679Z,99.90
2019-03-19T07:42:33.909Z,99.90
2019-03-19T07:45:01.424Z,99.90
2019-03-19T07:47:29.089Z,99.90
2019-03-19T07:49:56.313Z,99.90
2019-03-19T07:52:23.803Z,99.90
2019-03-19T07:54:51.367Z,99.90
2019-03-19T07:57:18.819Z,99.90
2019-03-19T07:59:46.379Z,99.90
2019-03-19T08:02:13.949Z,99.90
2019-03-19T08:04:41.164Z,99.90
2019-03-19T08:07:08.663Z,99.90
2019-03-19T08:09:36.457Z,99.90
2019-03-19T08:12:03.811Z,99.90
2019-03-19T08:14:31.027Z,99.90
2019-03-19T08:16:58.262Z,99.90
2019-03-19T08:19:25.821Z,99.90
2019-03-19T08:21:53.156Z,99.90
2019-03-19T08:24:20.729Z,99.90
2019-03-19T08:26:49.176Z,99.90
2019-03-19T08:29:16.879Z,99.90
2019-03-19T08:31:44.119Z,99.90
2019-03-19T08:34:11.992Z,99.90
2019-03-19T08:36:39.554Z,99.90
2019-03-19T08:39:07.199Z,99.90
2019-03-19T08:41:34.465Z,99.90
2019-03-19T08:44:02.336Z,99.90
2019-03-19T08:46:29.922Z,99.90
2019-03-19T08:48:57.216Z,99.90
2019-03-19T08:51:24.607Z,99.90
2019-03-19T08:53:51.860Z,99.90
2019-03-19T08:56:19.172Z,99.90
2019-03-19T08:58:46.387Z,99.90
2019-03-19T09:01:13.903Z,99.90
2019-03-19T09:03:41.124Z,99.90
2019-03-19T09:06:08.459Z,99.90
2019-03-19T09:08:35.986Z,99.90
2019-03-19T09:11:03.216Z,99.90
2019-03-19T09:13:30.815Z,99.90
2019-03-19T09:15:58.042Z,99.90
2019-03-19T09:18:27.447Z,99.90
2019-03-19T09:20:55.003Z,99.90
2019-03-19T09:23:22.235Z,99.90
2019-03-19T09:25:49.467Z,99.90
2019-03-19T09:28:17.067Z,99.90
2019-03-19T09:30:44.295Z,99.90
2019-03-19T09:33:11.887Z,99.90
2019-03-19T09:35:39.740Z,99.90
2019-03-19T09:38:06.971Z,99.90
2019-03-19T09:40:34.195Z,99.90
2019-03-19T09:43:01.747Z,99.90
2019-03-19T09:45:29.073Z,99.90
2019-03-19T09:47:56.328Z,99.90
2019-03-19T09:50:23.737Z,99.90
2019-03-19T09:52:50.958Z,99.90
2019-03-19T09:55:18.178Z,99.90
2019-03-19T09:57:45.732Z,99.90
2019-03-19T10:00:15.496Z,97.60
2019-03-19T10:02:42.995Z,96.90
2019-03-19T10:05:10.556Z,95.50
2019-03-19T10:07:38.319Z,95.60
2019-03-19T10:10:06.411Z,93.40
2019-03-19T10:12:33.647Z,93.00
2019-03-19T10:15:01.199Z,93.40
2019-03-19T10:17:28.759Z,90.90
2019-03-19T10:19:56.009Z,88.80
2019-03-19T10:22:23.577Z,84.20
2019-03-19T10:24:50.789Z,86.70
2019-03-19T10:27:19.653Z,92.30
2019-03-19T10:29:47.375Z,81.60
2019-03-19T10:32:14.932Z,90.50
2019-03-19T10:34:42.157Z,84.20
2019-03-19T10:37:09.648Z,81.60
2019-03-19T10:39:36.875Z,77.40
2019-03-19T10:42:04.454Z,87.00
2019-03-19T10:44:32.012Z,85.00
2019-03-19T10:46:59.165Z,93.60
2019-03-19T10:49:26.734Z,93.80
2019-03-19T10:51:54.601Z,90.90
2019-03-19T10:54:22.257Z,99.90
2019-03-19T10:56:49.585Z,93.10
2019-03-19T10:59:17.165Z,93.10
2019-03-19T11:01:44.379Z,91.80
2019-03-19T11:04:11.595Z,94.70
2019-03-19T11:06:39.132Z,96.10
2019-03-19T11:09:06.975Z,99.90
2019-03-19T11:11:34.547Z,97.00
2019-03-19T11:14:02.723Z,95.80
2019-03-19T11:16:30.268Z,99.20
2019-03-19T11:18:57.521Z,75.50
2019-03-19T11:21:24.731Z,91.80
2019-03-19T11:23:51.972Z,88.60
2019-03-19T11:26:19.797Z,64.20
2019-03-19T11:28:47.366Z,82.10
2019-03-19T11:31:14.588Z,76.10
2019-03-19T11:33:41.838Z,73.50
2019-03-19T11:36:09.049Z,71.70
2019-03-19T11:38:36.772Z,61.80
2019-03-19T11:41:04.210Z,68.80
2019-03-19T11:43:31.455Z,70.10
2019-03-19T11:45:58.935Z,69.70
2019-03-19T11:48:26.496Z,56.60
2019-03-19T11:50:54.051Z,63.00
2019-03-19T11:53:21.291Z,70.00
2019-03-19T11:55:48.409Z,64.70
2019-03-19T11:58:15.735Z,64.20
2019-03-19T12:00:45.366Z,61.70
2019-03-19T12:03:16.367Z,63.70
2019-03-19T12:05:42.004Z,58.90
2019-03-19T12:08:09.248Z,57.50
2019-03-19T12:10:36.473Z,62.40
2019-03-19T12:13:04.333Z,60.10
2019-03-19T12:15:31.545Z,59.20
2019-03-19T12:17:58.788Z,56.90
2019-03-19T12:20:26.005Z,56.60
2019-03-19T12:22:53.585Z,56.00
2019-03-19T12:25:21.114Z,56.50
2019-03-19T12:27:48.368Z,58.20
2019-03-19T12:30:22.128Z,57.70
2019-03-19T12:32:44.795Z,59.10
2019-03-19T12:35:12.534Z,56.10
2019-03-19T12:37:39.772Z,57.20
2019-03-19T12:40:09.077Z,58.80
2019-03-19T12:42:36.697Z,58.60
2019-03-19T12:45:05.340Z,59.30
2019-03-19T12:47:32.696Z,60.40
2019-03-19T12:50:00.459Z,57.90
2019-03-19T12:52:27.795Z,58.70
2019-03-19T12:54:55.295Z,58.20
2019-03-19T12:57:22.895Z,55.10
2019-03-19T12:59:50.200Z,55.90
2019-03-19T13:02:17.427Z,55.10
2019-03-19T13:04:45.751Z,54.60
2019-03-19T13:07:13.007Z,55.00
2019-03-19T13:09:40.267Z,55.00
2019-03-19T13:12:07.804Z,55.30
2019-03-19T13:14:35.064Z,54.20
2019-03-19T13:17:02.735Z,54.20
2019-03-19T13:19:30.279Z,54.30
2019-03-19T13:21:57.520Z,54.80
2019-03-19T13:24:24.779Z,54.20
2019-03-19T13:26:52.008Z,57.80
2019-03-19T13:29:19.598Z,56.90
2019-03-19T13:31:46.824Z,57.00
2019-03-19T13:34:14.401Z,60.10
2019-03-19T13:36:41.636Z,65.50
2019-03-19T13:39:09.531Z,62.70
2019-03-19T13:41:36.756Z,65.70
2019-03-19T13:44:04.073Z,64.70
2019-03-19T13:46:31.306Z,64.90
2019-03-19T13:48:58.865Z,67.20
2019-03-19T13:51:26.189Z,65.70
2019-03-19T13:53:53.505Z,66.50
2019-03-19T13:56:20.737Z,66.70
2019-03-19T13:58:48.018Z,70.00
2019-03-19T14:01:15.602Z,67.50
2019-03-19T14:03:42.873Z,68.00
2019-03-19T14:06:10.413Z,70.40
2019-03-19T14:08:37.639Z,74.20
2019-03-19T14:11:04.857Z,72.20
2019-03-19T14:13:32.067Z,71.20
2019-03-19T14:16:00.363Z,72.50
2019-03-19T14:18:27.608Z,74.80
2019-03-19T14:20:54.825Z,73.90
2019-03-19T14:23:22.252Z,72.20
2019-03-19T14:25:50.167Z,74.00
2019-03-19T14:28:19.535Z,72.00
2019-03-19T14:30:46.868Z,73.20
2019-03-19T14:33:14.479Z,72.50
2019-03-19T14:35:42.062Z,71.40
2019-03-19T14:38:09.608Z,72.90
2019-03-19T14:40:36.865Z,70.40
2019-03-19T14:43:04.385Z,75.00
2019-03-19T14:45:31.871Z,76.50
2019-03-19T14:47:59.119Z,72.20
2019-03-19T14:50:26.335Z,73.80
2019-03-19T14:52:53.937Z,76.00
2019-03-19T14:55:21.658Z,73.90
2019-03-19T14:57:50.896Z,75.20
2019-03-19T15:00:18.661Z,75.40
2019-03-19T15:02:46.000Z,76.70
2019-03-19T15:05:13.568Z,79.00
2019-03-19T15:07:40.805Z,79.50
2019-03-19T15:10:10.281Z,79.40
2019-03-19T15:12:37.527Z,76.10
2019-03-19T15:15:05.854Z,77.20
2019-03-19T15:17:33.091Z,76.40
2019-03-19T15:20:00.431Z,78.30
2019-03-19T15:22:32.568Z,77.30
2019-03-19T15:24:56.873Z,79.10
2019-03-19T15:27:24.114Z,79.60
2019-03-19T15:29:51.429Z,77.40
2019-03-19T15:32:19.103Z,80.60
2019-03-19T15:34:46.636Z,73.50
2019-03-19T15:37:14.190Z,74.10
2019-03-19T15:39:41.407Z,76.70
2019-03-19T15:42:08.635Z,80.80
2019-03-19T15:44:36.256Z,78.50
2019-03-19T15:47:03.472Z,80.10
2019-03-19T15:49:38.076Z,77.00
2019-03-19T15:52:00.178Z,73.40
2019-03-19T15:54:27.390Z,73.30
2019-03-19T15:56:54.611Z,78.00
2019-03-19T15:59:22.133Z,78.70
2019-03-19T16:01:49.471Z,78.40
2019-03-19T16:04:16.769Z,76.90
2019-03-19T16:06:44.383Z,77.00
2019-03-19T16:09:11.967Z,75.90
2019-03-19T16:11:39.487Z,79.10
2019-03-19T16:14:07.065Z,78.80
2019-03-19T16:16:34.400Z,77.60
2019-03-19T16:19:01.780Z,77.10
2019-03-19T16:21:29.331Z,76.10
2019-03-19T16:23:56.587Z,77.80
2019-03-19T16:26:24.961Z,73.90
2019-03-19T16:28:52.212Z,75.20
2019-03-19T16:31:19.445Z,73.60
2019-03-19T16:33:47.051Z,75.90
2019-03-19T16:36:14.580Z,76.30
2019-03-19T16:38:41.978Z,73.80
2019-03-19T16:41:09.288Z,76.00
2019-03-19T16:43:36.601Z,80.00
2019-03-19T16:46:03.834Z,79.00
2019-03-19T16:48:31.760Z,82.60
2019-03-19T16:50:59.322Z,89.00
2019-03-19T16:53:26.590Z,90.30
2019-03-19T16:55:54.241Z,91.30
2019-03-19T16:58:21.613Z,90.50
2019-03-19T17:00:48.831Z,89.60
2019-03-19T17:03:16.428Z,90.80
2019-03-19T17:05:44.635Z,92.40
2019-03-19T17:08:12.364Z,91.00
2019-03-19T17:10:39.671Z,89.00
2019-03-19T17:13:07.056Z,93.30
2019-03-19T17:15:34.703Z,92.60
2019-03-19T17:18:02.264Z,99.90
2019-03-19T17:20:29.823Z,99.90
2019-03-19T17:22:57.099Z,99.90
2019-03-19T17:25:24.634Z,99.90
2019-03-19T17:27:52.396Z,99.90
2019-03-19T17:30:21.804Z,99.90
2019-03-19T17:32:49.013Z,99.90
2019-03-19T17:35:16.612Z,99.90
2019-03-19T17:37:44.174Z,99.90
2019-03-19T17:40:11.453Z,99.90
2019-03-19T17:42:38.776Z,99.90
2019-03-19T17:45:06.539Z,99.90
2019-03-19T17:47:33.842Z,99.90
2019-03-19T17:50:01.363Z,99.90
2019-03-19T17:52:28.932Z,99.90
2019-03-19T17:54:56.740Z,99.90
2019-03-19T17:57:24.343Z,99.90
2019-03-19T17:59:51.892Z,99.90
2019-03-19T18:02:23.834Z,99.90
2019-03-19T18:04:48.503Z,99.90
2019-03-19T18:07:15.721Z,99.90
2019-03-19T18:09:43.251Z,99.90
2019-03-19T18:12:10.824Z,99.90
2019-03-19T18:14:38.608Z,99.90
2019-03-19T18:17:06.135Z,99.90
2019-03-19T18:19:33.386Z,99.90
2019-03-19T18:22:00.594Z,99.90
2019-03-19T18:24:27.799Z,99.90
2019-03-19T18:26:55.027Z,99.90
2019-03-19T18:29:22.623Z,99.90
2019-03-19T18:31:50.263Z,99.90
2019-03-19T18:34:19.196Z,99.90
2019-03-19T18:36:46.613Z,99.90
2019-03-19T18:39:14.167Z,99.90
2019-03-19T18:41:41.726Z,99.90
2019-03-19T18:44:09.588Z,99.90
2019-03-19T18:46:37.661Z,99.90
2019-03-19T18:49:05.000Z,99.90
2019-03-19T18:51:32.311Z,99.90
2019-03-19T18:53:59.532Z,99.90
2019-03-19T18:56:26.885Z,99.90
2019-03-19T18:58:54.095Z,99.90
2019-03-19T19:01:21.337Z,99.90
2019-03-19T19:03:48.940Z,99.90
2019-03-19T19:06:16.544Z,99.90
2019-03-19T19:08:44.159Z,99.90
2019-03-19T19:11:11.740Z,99.90
2019-03-19T19:13:38.964Z,99.90
2019-03-19T19:16:06.621Z,99.90
2019-03-19T19:18:34.436Z,99.90
2019-03-19T19:21:01.780Z,99.90
2019-03-19T19:23:29.310Z,99.90
2019-03-19T19:25:56.861Z,99.90
2019-03-19T19:28:24.843Z,99.90
2019-03-19T19:33:34.290Z,99.90
2019-03-19T19:36:01.533Z,99.90
2019-03-19T19:38:29.113Z,99.90
2019-03-19T19:40:56.396Z,99.90
2019-03-19T19:43:23.993Z,99.90
2019-03-19T19:45:51.357Z,99.90
2019-03-19T19:48:18.596Z,99.90
2019-03-19T19:50:46.152Z,99.90
2019-03-19T19:53:15.741Z,99.90
2019-03-19T19:55:42.781Z,99.90
2019-03-19T19:58:10.025Z,99.90
2019-03-19T20:00:37.653Z,99.90
2019-03-19T20:03:12.374Z,99.90
2019-03-19T20:05:34.382Z,99.90
2019-03-19T20:08:01.628Z,99.90
2019-03-19T20:10:28.877Z,99.90
2019-03-19T20:12:56.445Z,99.90
2019-03-19T20:15:23.810Z,99.90
2019-03-19T20:17:51.041Z,99.90
2019-03-19T20:20:18.312Z,99.90
2019-03-19T20:22:45.553Z,99.90
2019-03-19T20:25:13.440Z,99.90
2019-03-19T20:27:40.680Z,99.90
2019-03-19T20:30:10.980Z,99.90
2019-03-19T20:32:38.220Z,99.90
2019-03-19T20:35:06.497Z,99.90
2019-03-19T20:37:33.728Z,99.90
2019-03-19T20:40:00.978Z,99.90
2019-03-19T20:42:28.304Z,99.90
2019-03-19T20:44:55.877Z,99.90
2019-03-19T20:47:23.397Z,99.90
2019-03-19T20:49:50.625Z,99.90
2019-03-19T20:52:18.299Z,99.90
2019-03-19T20:54:45.558Z,99.90
2019-03-19T20:57:12.795Z,99.90
2019-03-19T20:59:40.048Z,99.90
2019-03-19T21:02:07.292Z,99.90
2019-03-19T21:04:34.540Z,99.90
2019-03-19T21:07:01.782Z,99.90
2019-03-19T21:09:29.012Z,99.90
2019-03-19T21:11:56.260Z,99.90
2019-03-19T21:14:23.493Z,99.90
2019-03-19T21:16:50.757Z,99.90
2019-03-19T21:19:18.024Z,99.90
2019-03-19T21:21:45.549Z,99.90
2019-03-19T21:24:13.573Z,99.90
2019-03-19T21:26:41.065Z,99.90
2019-03-19T21:29:08.305Z,99.90
2019-03-19T21:31:35.883Z,99.90
2019-03-19T21:34:03.212Z,99.90
2019-03-19T21:36:30.481Z,99.90
2019-03-19T21:38:57.710Z,99.90
2019-03-19T21:41:24.953Z,99.90
2019-03-19T21:43:52.185Z,99.90
2019-03-19T21:46:20.200Z,99.90
2019-03-19T21:48:47.755Z,99.90
2019-03-19T21:51:15.280Z,99.90
2019-03-19T21:53:42.980Z,99.90
2019-03-19T21:56:10.574Z,99.90
2019-03-19T21:58:38.136Z,99.90
2019-03-19T22:01:05.522Z,99.90
2019-03-19T22:03:32.766Z,99.90
2019-03-19T22:06:00.283Z,99.90
2019-03-19T22:08:27.556Z,99.90
2019-03-19T22:10:54.788Z,99.90
2019-03-19T22:13:22.379Z,99.90
2019-03-19T22:15:49.677Z,99.90
2019-03-19T22:18:16.940Z,99.90
2019-03-19T22:20:44.520Z,99.90
2019-03-19T22:23:12.217Z,99.90
2019-03-19T22:25:39.504Z,99.90
2019-03-19T22:28:07.477Z,99.90
2019-03-19T22:30:34.733Z,99.90
2019-03-19T22:33:02.137Z,99.90
2019-03-19T22:35:29.368Z,99.90
2019-03-19T22:37:56.660Z,99.90
2019-03-19T22:40:23.887Z,99.90
2019-03-19T22:42:51.155Z,99.90
2019-03-19T22:45:18.502Z,99.90
2019-03-19T22:47:45.781Z,99.90
2019-03-19T22:50:13.662Z,99.90
2019-03-19T22:52:40.844Z,99.90
2019-03-19T22:55:08.248Z,99.90
2019-03-19T22:57:35.540Z,99.90
2019-03-19T23:00:04.984Z,99.90
2019-03-19T23:02:32.243Z,99.90
2019-03-19T23:04:59.756Z,99.90
2019-03-19T23:07:27.345Z,99.90
2019-03-19T23:09:54.606Z,99.90
2019-03-19T23:12:21.857Z,99.90
2019-03-19T23:14:49.091Z,99.90
2019-03-19T23:17:16.356Z,99.90
2019-03-19T23:19:43.618Z,99.90
2019-03-19T23:22:10.972Z,99.90
2019-03-19T23:24:38.208Z,99.90
2019-03-19T23:27:05.471Z,99.90
2019-03-19T23:29:32.717Z,99.90
2019-03-19T23:31:59.953Z,99.90
2019-03-19T23:34:37.911Z,99.90
2019-03-19T23:36:56.599Z,99.90
2019-03-19T23:39:24.120Z,99.90
2019-03-19T23:41:51.381Z,99.90
2019-03-19T23:44:18.634Z,99.90
2019-03-19T23:46:46.300Z,99.90
2019-03-19T23:49:13.569Z,99.90
2019-03-19T23:51:40.801Z,99.90
2019-03-19T23:54:08.055Z,99.90
2019-03-19T23:56:35.810Z,99.90
2019-03-19T23:59:03.160Z,99.90
